AirNav   Pilot Getaways
 
airports navaids fix Aviation Fuel airboss pilotshop
 495 users online  

9V1 Springview Municipal Airport
Springview, Nebraska, USA


FAA INFORMATION EFFECTIVE 10 APRIL 2008

Location

FAA Identifier: 9V1
Lat/Long: 42-49-45.0000N / 099-44-23.4180W
42-49.750000N / 099-44.390300W
42.8291667 / -99.7398383
(estimated)
Elevation: 2446 ft. / 745.5 m (surveyed)
Variation: 08E (1985)
From city: 1 mile NE of SPRINGVIEW, NE
Time zone: UTC -5 (UTC -6 during Standard Time)
Zip code: 68778

Airport Operations

Airport use: Open to the public
Activation date: 08/1957
Sectional chart: OMAHA
Control tower: no
ARTCC: DENVER CENTER
FSS: COLUMBUS FLIGHT SERVICE STATION
NOTAMs facility: OLU (NOTAM-D service available)
Attendance: UNATNDD
Wind indicator: yes
Segmented circle: no

Airport Communications

CTAF: 122.9
WX AWOS-3 at ANW (19 nm SW): 118.325 (308-387-2329)

Nearby radio navigation aids

VOR radial/distance  VOR name  Freq  Var
ANWr026/19.1AINSWORTH VOR/DME112.7009E
ISDr171/(39.5)WINNER VOR112.8008E

 
NDB name  Hdg/Dist  Freq  Var  ID
ROCK COUNTY327/16.934108ERBE .-. -... .
VALENTINE085/35.731408EVTN ...- - -.

Airport Services

Parking: tiedowns
Airframe service: NONE
Powerplant service: NONE
Bottled oxygen: NONE
Bulk oxygen: NONE

Runway Information

Runway 13/31

Dimensions: 2200 x 200 ft. / 671 x 61 m
NOT PLOWED DURING WINTER MONTHS.
Surface: turf, in fair condition
RUNWAY 13  RUNWAY 31
Gradient: 0.1%0.1%
Traffic pattern: leftleft
Obstructions: 5 ft. fence, marked, 125 ft. from runway, 120 ft. left of centerline, 25:1 slope to clear3 ft. fence, marked, 65 ft. from runway, 120 ft. left of centerline, 21:1 slope to clear

Airport Ownership and Management from official FAA records

Ownership: Publicly-owned
Owner: VILLAGE OF SPRINGVIEW
P.O. BOX 132
SPRINGVIEW, NE 68778
Phone 402-497-2499
Manager: ROB ROWAN
P.O. BOX 132
SPRINGVIEW, NE 68778
Phone 402-497-2499

Airport Operational Statistics

Aircraft operations: 60/year *
100% transient general aviation
* for 12-month period ending 10 July 2003

Additional Remarks

ARPT CLSD PERMLY.

Instrument Procedures

There are no published instrument procedures at 9V1.

Some nearby airports with instrument procedures:

KRBE - Rock County Airport (17 nm SE)
KANW - Ainsworth Municipal Airport (19 nm SW)
9D1 - Gregory Municipal Airport, Flynn Field (28 nm NE)
KICR - Winner Regional Airport (34 nm N)
8V2 - Stuart-Atkinson Municipal Airport (35 nm SE)
 
Loc | Ops | Rwys | IFR | FBO | Links
Com | Nav | Svcs | Stats | Notes

$4.95 $4.65

 
Area around 9V1 (Springview Municipal Airport)
 
Road maps at: MapQuest MapPoint Yahoo! Maps Google Rand McNally
Satellite photo at: TerraServer Virtual Earth

 
Aerial photo
WARNING: Photo may not be current or correct
Aerial photo of 9V1 (Springview Municipal Airport)
Do you have a better or more recent aerial photo of Springview Municipal Airport that you would like to share? If so, please send us your photo.

 
Sectional chart
Click on chart to expand
Sectional chart courtesy of SkyVector.com

 
Airport distance calculator
Flying to Springview Municipal Airport? Find the distance to fly.

From to 9V1

Sunrise and sunset
Times for 17-May-2008
 Local
(UTC-5)
 Zulu
(UTC)
Morning civil twilight05:4110:41
Sunrise06:1411:14
Sunset20:5701:57
Evening civil twilight21:3002:30

Current date and time
Zulu (UTC)  17-May-2008 06:00:06
Local (UTC-5)  17-May-2008 01:00:06
 
METAR
KANW 
19nm SW 
170550Z AUTO 28006KT 10SM CLR 13/06 A2998 RMK AO2
KICR 
34nm N 
170553Z AUTO 30008KT 10SM CLR 14/06 A2994 RMK AO2 SLP128 T01390056 10256 20133 402830078 50006
KVTN 
36nm W 
170552Z AUTO 28006KT 10SM CLR 11/05 A3000 RMK AO2 SLP149 T01060050 10256 20106 402780028 50005
TAF
KVTN 
36nm W 
170522Z 170606 33009KT P6SM SKC FM1500 32014G20KT P6SM SKC FM1800 33020G27KT P6SM FEW090 FM0100 33010KT P6SM SKC
NOTAMs
Click for the latest NOTAMs
NOTAMs are issued by the DoD/FAA and will open in a separate window not controlled by AirNav.

 

 
 

Would you like to see your business listed on this page?

 If your business provides an interesting product or service to pilots, flight crews, aircraft, or users of the Springview Municipal Airport, you should consider listing it here.  To start the listing process, click on the button below
 
Add a business
 

Other Pages about Springview Municipal Airport

Update a link
 
Copyright © AirNav, LLC. All rights reserved. Privacy Policy  Contact